Time;durP1;ratioP1;P1;durP2;ratioP2;P2;SDS_P1;SDS_P2;PMS_P1;PMS_P2;Temp;Humidity;BMP_temperature;BMP_pressure;BME280_temperature;BME280_humidity;BME280_pressure;Samples;Min_cycle;Max_cycle;Signal;HPM_P1;HPM_P2
2023/05/01 00:00:49;;;;;;;6.22;5.63;;;;;;;;;;5113497;28;20085;-67
2023/05/01 00:03:18;;;;;;;6.10;5.50;;;;;;;;;;5113467;28;20016;-66
2023/05/01 00:05:46;;;;;;;6.45;5.75;;;;;;;;;;5113563;28;20031;-66
2023/05/01 00:08:12;;;;;;;6.35;5.22;;;;;;;;;;5113763;28;20028;-67
2023/05/01 00:10:38;;;;;;;5.70;5.10;;;;;;;;;;5113789;28;20437;-67
2023/05/01 00:13:04;;;;;;;5.85;5.25;;;;;;;;;;5113327;28;20039;-66
2023/05/01 00:15:31;;;;;;;6.00;5.40;;;;;;;;;;5112820;28;20027;-66
2023/05/01 00:17:57;;;;;;;5.82;5.22;;;;;;;;;;5112531;28;20384;-67
2023/05/01 00:20:27;;;;;;;7.05;5.95;;;;;;;;;;5112808;28;20625;-66
2023/05/01 00:22:52;;;;;;;7.28;5.88;;;;;;;;;;5113196;28;20031;-67
2023/05/01 00:25:19;;;;;;;6.10;5.50;;;;;;;;;;5113076;27;20020;-67
2023/05/01 00:27:45;;;;;;;6.05;5.45;;;;;;;;;;5112922;28;20088;-67
2023/05/01 00:30:11;;;;;;;6.30;5.18;;;;;;;;;;5113066;28;20020;-66
2023/05/01 00:32:37;;;;;;;5.72;5.13;;;;;;;;;;5113114;28;20044;-67
2023/05/01 00:35:03;;;;;;;6.72;5.85;;;;;;;;;;5112930;28;20066;-66
2023/05/01 00:37:29;;;;;;;5.95;5.35;;;;;;;;;;5113619;28;20077;-67
2023/05/01 00:39:55;;;;;;;6.97;6.25;;;;;;;;;;5113460;28;20421;-66
2023/05/01 00:42:21;;;;;;;6.13;5.35;;;;;;;;;;5112422;28;20058;-66
2023/05/01 00:44:47;;;;;;;6.43;5.60;;;;;;;;;;5113064;28;20015;-67
2023/05/01 00:47:13;;;;;;;6.22;5.60;;;;;;;;;;5112798;28;20028;-67
2023/05/01 00:49:41;;;;;;;6.03;5.53;;;;;;;;;;5112966;28;20019;-67
2023/05/01 00:52:08;;;;;;;6.80;6.13;;;;;;;;;;5110902;28;20028;-67
2023/05/01 00:54:35;;;;;;;5.88;5.28;;;;;;;;;;5112898;28;20099;-67
2023/05/01 00:57:01;;;;;;;5.50;5.00;;;;;;;;;;5112648;28;20078;-66
2023/05/01 00:59:28;;;;;;;7.22;5.97;;;;;;;;;;5112959;27;20483;-67
2023/05/01 01:01:54;;;;;;;8.38;5.40;;;;;;;;;;5112560;28;20027;-66
2023/05/01 01:04:20;;;;;;;5.75;5.22;;;;;;;;;;5112203;28;20043;-66
2023/05/01 01:06:58;;;;;;;6.43;5.82;;;;;;;;;;5111592;28;20059;-67
2023/05/01 01:09:27;;;;;;;6.22;5.63;;;;;;;;;;5112467;28;20096;-66
2023/05/01 01:12:12;;;;;;;5.75;5.20;;;;;;;;;;5111177;28;20028;-66
2023/05/01 01:14:38;;;;;;;7.00;6.03;;;;;;;;;;5112161;28;20540;-66
2023/05/01 01:17:13;;;;;;;6.55;5.85;;;;;;;;;;5112096;28;20145;-66
2023/05/01 01:19:53;;;;;;;6.10;5.50;;;;;;;;;;5112372;28;20085;-66
2023/05/01 01:22:22;;;;;;;6.57;5.88;;;;;;;;;;5111456;28;20634;-66
2023/05/01 01:25:07;;;;;;;6.03;5.43;;;;;;;;;;5112084;28;20023;-66
2023/05/01 01:27:36;;;;;;;5.70;5.20;;;;;;;;;;5112064;28;20016;-67
2023/05/01 01:30:08;;;;;;;5.80;5.20;;;;;;;;;;5111269;27;20510;-66
2023/05/01 01:32:42;;;;;;;5.95;5.40;;;;;;;;;;5112122;28;20058;-66
2023/05/01 01:35:19;;;;;;;6.13;5.53;;;;;;;;;;5111851;28;20051;-66
2023/05/01 01:37:45;;;;;;;5.47;4.95;;;;;;;;;;5112063;28;20551;-67
2023/05/01 01:40:13;;;;;;;6.20;5.53;;;;;;;;;;5110400;28;20107;-66
2023/05/01 01:42:41;;;;;;;6.32;5.72;;;;;;;;;;5112022;28;20024;-67
2023/05/01 01:45:19;;;;;;;6.35;5.75;;;;;;;;;;5110955;28;20028;-67
2023/05/01 01:47:46;;;;;;;5.93;5.32;;;;;;;;;;5111933;28;20054;-67
2023/05/01 01:50:13;;;;;;;6.10;5.50;;;;;;;;;;5111650;28;20383;-66
2023/05/01 01:52:41;;;;;;;6.13;5.53;;;;;;;;;;5111724;28;20039;-68
2023/05/01 01:55:10;;;;;;;5.88;5.20;;;;;;;;;;5111469;28;20104;-68
2023/05/01 01:57:38;;;;;;;6.20;5.60;;;;;;;;;;5111811;28;20499;-68
2023/05/01 02:00:07;;;;;;;6.28;5.68;;;;;;;;;;5110900;28;20023;-68
2023/05/01 02:02:36;;;;;;;6.10;5.50;;;;;;;;;;5111419;28;20114;-67
2023/05/01 02:05:03;;;;;;;6.05;5.45;;;;;;;;;;5111441;28;20032;-68
2023/05/01 02:07:30;;;;;;;6.22;5.63;;;;;;;;;;5111988;28;20032;-68
2023/05/01 02:09:56;;;;;;;6.47;5.75;;;;;;;;;;5111677;27;20019;-68
2023/05/01 02:12:25;;;;;;;6.72;6.13;;;;;;;;;;5110572;28;20043;-68
2023/05/01 02:14:52;;;;;;;6.30;5.70;;;;;;;;;;5111525;28;20464;-67
2023/05/01 02:17:19;;;;;;;6.40;5.60;;;;;;;;;;5109958;28;20023;-68
2023/05/01 02:19:45;;;;;;;5.60;5.00;;;;;;;;;;5111225;28;20391;-68
2023/05/01 02:22:12;;;;;;;5.95;5.18;;;;;;;;;;5111267;28;20372;-68
2023/05/01 02:24:38;;;;;;;6.38;5.78;;;;;;;;;;5111371;28;20028;-67
2023/05/01 02:27:08;;;;;;;6.88;6.03;;;;;;;;;;5110462;28;20111;-68
2023/05/01 02:29:34;;;;;;;6.28;5.65;;;;;;;;;;5111184;28;20372;-68
2023/05/01 02:32:00;;;;;;;6.72;5.97;;;;;;;;;;5111018;28;20106;-68
2023/05/01 02:34:26;;;;;;;6.03;5.43;;;;;;;;;;5111598;28;20019;-68
2023/05/01 02:36:53;;;;;;;5.70;5.07;;;;;;;;;;5110714;28;20023;-68
2023/05/01 02:39:19;;;;;;;7.05;5.85;;;;;;;;;;5111021;28;20441;-68
2023/05/01 02:41:45;;;;;;;6.72;6.07;;;;;;;;;;5111254;28;20153;-68
2023/05/01 02:44:12;;;;;;;6.35;5.75;;;;;;;;;;5111076;28;20034;-68
2023/05/01 02:46:38;;;;;;;6.47;5.57;;;;;;;;;;5111288;28;20051;-68
2023/05/01 02:49:05;;;;;;;7.18;6.47;;;;;;;;;;5111059;28;20028;-68
2023/05/01 02:51:32;;;;;;;6.90;6.18;;;;;;;;;;5111116;28;22045;-69
2023/05/01 02:53:59;;;;;;;5.40;4.88;;;;;;;;;;5111484;28;20030;-68
2023/05/01 02:56:26;;;;;;;6.75;5.97;;;;;;;;;;5110953;28;20047;-68
2023/05/01 02:58:52;;;;;;;5.80;5.20;;;;;;;;;;5110589;28;20460;-68
2023/05/01 03:01:19;;;;;;;6.93;6.22;;;;;;;;;;5110658;28;20077;-68
2023/05/01 03:03:45;;;;;;;6.35;5.75;;;;;;;;;;5111110;28;20478;-68
2023/05/01 03:06:13;;;;;;;7.25;6.20;;;;;;;;;;5110710;28;20023;-68
2023/05/01 03:08:39;;;;;;;6.30;5.63;;;;;;;;;;5110974;28;20088;-68
2023/05/01 03:11:08;;;;;;;6.80;6.00;;;;;;;;;;5110786;28;20106;-68
2023/05/01 03:13:34;;;;;;;8.10;5.93;;;;;;;;;;5110122;28;20092;-68
2023/05/01 03:16:01;;;;;;;7.82;6.90;;;;;;;;;;5109623;28;20059;-68
2023/05/01 03:18:27;;;;;;;5.93;5.25;;;;;;;;;;5111289;28;20027;-68
2023/05/01 03:20:56;;;;;;;6.43;5.47;;;;;;;;;;5110695;28;20036;-68
2023/05/01 03:23:22;;;;;;;6.07;5.47;;;;;;;;;;5112296;28;20499;-68
2023/05/01 03:25:48;;;;;;;6.47;5.85;;;;;;;;;;5114551;28;20042;-68
2023/05/01 03:28:15;;;;;;;6.43;5.82;;;;;;;;;;5114135;28;20417;-68
2023/05/01 03:30:41;;;;;;;6.53;5.70;;;;;;;;;;5114641;28;20395;-67
2023/05/01 03:33:07;;;;;;;6.07;5.47;;;;;;;;;;5114272;28;20036;-68
2023/05/01 03:35:33;;;;;;;6.68;5.85;;;;;;;;;;5114024;28;20051;-68
2023/05/01 03:37:59;;;;;;;7.45;6.72;;;;;;;;;;5114823;28;20124;-68
2023/05/01 03:40:25;;;;;;;6.85;6.07;;;;;;;;;;5114702;28;20041;-68
2023/05/01 03:42:51;;;;;;;6.25;5.63;;;;;;;;;;5114446;28;20120;-68
2023/05/01 03:45:17;;;;;;;6.70;6.00;;;;;;;;;;5114063;28;20034;-67
2023/05/01 03:47:43;;;;;;;7.40;6.30;;;;;;;;;;5114300;28;20082;-67
2023/05/01 03:50:10;;;;;;;6.90;5.88;;;;;;;;;;5113459;28;20029;-67
2023/05/01 03:52:36;;;;;;;5.93;5.32;;;;;;;;;;5113980;28;20126;-67
2023/05/01 03:55:02;;;;;;;6.38;5.75;;;;;;;;;;5113808;28;20489;-67
2023/05/01 03:57:28;;;;;;;6.35;5.75;;;;;;;;;;5114419;28;20031;-67
2023/05/01 03:59:54;;;;;;;5.97;5.40;;;;;;;;;;5113481;28;20479;-67
2023/05/01 04:02:20;;;;;;;6.72;5.75;;;;;;;;;;5113683;28;20319;-67
2023/05/01 04:04:46;;;;;;;6.70;6.00;;;;;;;;;;5113888;28;20020;-67
2023/05/01 04:07:13;;;;;;;7.38;5.88;;;;;;;;;;5112272;28;20027;-67
2023/05/01 04:09:38;;;;;;;7.03;6.32;;;;;;;;;;5113891;28;20050;-67
2023/05/01 04:12:05;;;;;;;5.97;5.38;;;;;;;;;;5113518;28;20058;-67
2023/05/01 04:14:31;;;;;;;7.15;6.45;;;;;;;;;;5113200;28;20034;-67
2023/05/01 04:16:57;;;;;;;6.25;5.65;;;;;;;;;;5113473;28;20114;-68
2023/05/01 04:19:23;;;;;;;5.93;5.32;;;;;;;;;;5113464;28;20028;-68
2023/05/01 04:21:49;;;;;;;6.82;6.13;;;;;;;;;;5113453;28;20038;-68
2023/05/01 04:24:16;;;;;;;6.90;6.20;;;;;;;;;;5113458;28;20077;-67
2023/05/01 04:26:42;;;;;;;6.80;6.10;;;;;;;;;;5113613;28;20081;-67
2023/05/01 04:29:08;;;;;;;6.55;5.88;;;;;;;;;;5113299;28;20027;-68
2023/05/01 04:31:35;;;;;;;7.07;6.05;;;;;;;;;;5112811;28;20560;-67
2023/05/01 04:34:01;;;;;;;6.38;5.80;;;;;;;;;;5112675;28;20046;-67
2023/05/01 04:36:28;;;;;;;7.28;6.57;;;;;;;;;;5113550;28;20027;-67
2023/05/01 04:38:54;;;;;;;6.45;5.85;;;;;;;;;;5113424;28;20030;-67
2023/05/01 04:41:20;;;;;;;7.22;6.53;;;;;;;;;;5113060;28;20032;-68
2023/05/01 04:43:46;;;;;;;5.80;5.20;;;;;;;;;;5113219;28;20065;-67
2023/05/01 04:46:12;;;;;;;6.30;5.70;;;;;;;;;;5112859;28;20055;-67
2023/05/01 04:48:38;;;;;;;6.63;6.03;;;;;;;;;;5112959;28;20058;-67
2023/05/01 04:51:04;;;;;;;6.65;5.90;;;;;;;;;;5112660;28;20028;-67
2023/05/01 04:53:31;;;;;;;7.32;5.80;;;;;;;;;;5112987;28;20092;-67
2023/05/01 04:55:57;;;;;;;7.05;6.35;;;;;;;;;;5113139;28;20019;-67
2023/05/01 04:58:23;;;;;;;6.65;5.95;;;;;;;;;;5112584;28;20118;-67
2023/05/01 05:00:49;;;;;;;6.80;6.15;;;;;;;;;;5112749;28;20136;-67
2023/05/01 05:03:17;;;;;;;6.28;5.68;;;;;;;;;;5112641;28;20129;-66
2023/05/01 05:05:44;;;;;;;7.85;6.68;;;;;;;;;;5112685;28;20098;-67
2023/05/01 05:08:10;;;;;;;6.82;6.13;;;;;;;;;;5112680;28;20028;-67
2023/05/01 05:10:36;;;;;;;7.18;6.47;;;;;;;;;;5112751;28;20430;-67
2023/05/01 05:13:02;;;;;;;7.30;6.18;;;;;;;;;;5112473;28;20035;-67
2023/05/01 05:15:28;;;;;;;6.78;6.07;;;;;;;;;;5112914;28;20069;-67
2023/05/01 05:17:54;;;;;;;6.35;5.75;;;;;;;;;;5112660;28;20043;-67
2023/05/01 05:20:20;;;;;;;7.72;6.53;;;;;;;;;;5112152;28;20453;-67
2023/05/01 05:22:46;;;;;;;7.18;6.22;;;;;;;;;;5112617;28;20023;-67
2023/05/01 05:25:12;;;;;;;7.53;6.50;;;;;;;;;;5112324;28;20012;-67
2023/05/01 05:27:38;;;;;;;7.10;6.38;;;;;;;;;;5112466;28;20019;-67
2023/05/01 05:30:05;;;;;;;7.60;6.55;;;;;;;;;;5112151;28;20162;-67
2023/05/01 05:32:31;;;;;;;8.45;6.68;;;;;;;;;;5112282;27;20417;-67
2023/05/01 05:34:57;;;;;;;6.80;6.10;;;;;;;;;;5112616;28;20028;-67
2023/05/01 05:37:24;;;;;;;7.60;6.05;;;;;;;;;;5112079;28;20537;-67
2023/05/01 05:39:50;;;;;;;7.32;6.07;;;;;;;;;;5111149;28;20461;-67
2023/05/01 05:42:16;;;;;;;7.93;7.13;;;;;;;;;;5112015;28;20055;-67
2023/05/01 05:44:42;;;;;;;7.22;6.53;;;;;;;;;;5111914;28;20019;-67
2023/05/01 05:47:08;;;;;;;7.65;6.82;;;;;;;;;;5111354;28;20444;-67
2023/05/01 05:49:34;;;;;;;7.90;7.03;;;;;;;;;;5112131;28;20098;-67
2023/05/01 05:52:00;;;;;;;7.43;6.60;;;;;;;;;;5111676;28;20023;-67
2023/05/01 05:54:26;;;;;;;7.85;6.55;;;;;;;;;;5112294;28;20031;-67
2023/05/01 05:56:52;;;;;;;7.50;6.65;;;;;;;;;;5111952;28;20391;-67
2023/05/01 05:59:18;;;;;;;8.60;6.38;;;;;;;;;;5111639;28;20027;-67
2023/05/01 06:01:44;;;;;;;9.63;7.50;;;;;;;;;;5111812;28;20522;-67
2023/05/01 06:04:12;;;;;;;6.80;6.10;;;;;;;;;;5111497;28;20016;-68
2023/05/01 06:06:38;;;;;;;7.53;6.68;;;;;;;;;;5111716;28;20026;-67
2023/05/01 06:09:06;;;;;;;8.68;6.38;;;;;;;;;;5111731;28;20020;-67
2023/05/01 06:11:32;;;;;;;9.15;7.25;;;;;;;;;;5111536;28;20054;-68
2023/05/01 06:13:59;;;;;;;7.80;7.07;;;;;;;;;;5111947;28;20062;-67
2023/05/01 06:16:25;;;;;;;8.05;7.03;;;;;;;;;;5111800;28;20072;-67
2023/05/01 06:18:52;;;;;;;7.95;7.15;;;;;;;;;;5109776;28;20027;-67
2023/05/01 06:21:18;;;;;;;7.32;6.57;;;;;;;;;;5111171;28;20035;-67
2023/05/01 06:23:44;;;;;;;8.25;7.45;;;;;;;;;;5111410;28;20387;-67
2023/05/01 06:26:10;;;;;;;8.05;7.25;;;;;;;;;;5110055;28;20080;-66
2023/05/01 06:28:36;;;;;;;8.13;7.05;;;;;;;;;;5110592;28;20028;-67
2023/05/01 06:31:02;;;;;;;7.97;7.05;;;;;;;;;;5111099;28;20032;-67
2023/05/01 06:33:28;;;;;;;8.02;6.65;;;;;;;;;;5111609;28;20333;-67
2023/05/01 06:35:54;;;;;;;8.60;7.70;;;;;;;;;;5111339;28;20031;-67
2023/05/01 06:38:20;;;;;;;8.55;7.65;;;;;;;;;;5110975;28;20027;-67
2023/05/01 06:40:48;;;;;;;8.38;7.13;;;;;;;;;;5111379;28;20512;-66
2023/05/01 06:43:14;;;;;;;7.97;6.75;;;;;;;;;;5109748;28;20471;-67
2023/05/01 06:45:41;;;;;;;7.80;7.00;;;;;;;;;;5111191;28;20028;-67
2023/05/01 06:48:07;;;;;;;8.23;7.43;;;;;;;;;;5111052;28;20050;-66
2023/05/01 06:50:33;;;;;;;8.52;7.53;;;;;;;;;;5111287;28;20452;-67
2023/05/01 06:53:01;;;;;;;9.43;7.47;;;;;;;;;;5111424;28;20455;-67
2023/05/01 06:55:29;;;;;;;8.07;6.82;;;;;;;;;;5111445;28;20032;-67
2023/05/01 06:57:55;;;;;;;8.43;6.95;;;;;;;;;;5114061;28;20027;-67
2023/05/01 07:00:22;;;;;;;8.20;7.40;;;;;;;;;;5115015;28;20034;-67
2023/05/01 07:02:48;;;;;;;9.13;7.82;;;;;;;;;;5115325;28;20026;-67
2023/05/01 07:05:14;;;;;;;7.35;6.55;;;;;;;;;;5115018;28;20019;-67
2023/05/01 07:07:40;;;;;;;9.45;8.02;;;;;;;;;;5114440;28;20019;-67
2023/05/01 07:10:07;;;;;;;8.45;7.63;;;;;;;;;;5114691;28;20026;-67
2023/05/01 07:12:33;;;;;;;8.70;7.40;;;;;;;;;;5115084;27;20505;-67
2023/05/01 07:14:59;;;;;;;8.35;7.43;;;;;;;;;;5114823;28;20055;-66
2023/05/01 07:17:25;;;;;;;8.20;7.10;;;;;;;;;;5115346;28;20106;-67
2023/05/01 07:19:51;;;;;;;8.30;7.40;;;;;;;;;;5114783;28;20035;-66
2023/05/01 07:22:18;;;;;;;8.10;7.25;;;;;;;;;;5114659;28;20550;-66
2023/05/01 07:24:44;;;;;;;7.93;7.03;;;;;;;;;;5114892;28;20027;-67
2023/05/01 07:27:10;;;;;;;8.30;7.18;;;;;;;;;;5114534;28;20020;-66
2023/05/01 07:29:38;;;;;;;9.13;7.65;;;;;;;;;;5114856;28;20101;-67
2023/05/01 07:32:06;;;;;;;9.63;7.40;;;;;;;;;;5114424;28;20047;-67
2023/05/01 07:34:32;;;;;;;9.07;8.18;;;;;;;;;;5114500;28;20441;-66
2023/05/01 07:36:58;;;;;;;8.77;7.80;;;;;;;;;;5114885;28;20023;-66
2023/05/01 07:39:24;;;;;;;10.57;7.55;;;;;;;;;;5114270;28;20073;-66
2023/05/01 07:41:50;;;;;;;10.35;7.80;;;;;;;;;;5114525;28;20317;-66
2023/05/01 07:44:15;;;;;;;8.90;7.15;;;;;;;;;;5114167;28;20095;-67
2023/05/01 07:46:42;;;;;;;9.13;7.97;;;;;;;;;;5114573;28;20031;-67
2023/05/01 07:49:08;;;;;;;7.45;6.63;;;;;;;;;;5114281;28;20024;-67
2023/05/01 07:51:34;;;;;;;12.98;8.88;;;;;;;;;;5114354;28;20031;-67
2023/05/01 07:54:03;;;;;;;10.48;7.55;;;;;;;;;;5113023;28;20050;-67
2023/05/01 07:56:32;;;;;;;7.68;6.80;;;;;;;;;;5114437;28;20016;-66
2023/05/01 07:58:58;;;;;;;9.80;8.43;;;;;;;;;;5114855;28;20394;-66
2023/05/01 08:01:24;;;;;;;10.27;8.10;;;;;;;;;;5114062;28;20023;-67
2023/05/01 08:03:51;;;;;;;8.82;7.63;;;;;;;;;;5114265;28;20077;-66
2023/05/01 08:06:17;;;;;;;10.13;7.57;;;;;;;;;;5113970;28;20499;-66
2023/05/01 08:08:43;;;;;;;10.32;8.80;;;;;;;;;;5112445;28;20037;-66
2023/05/01 08:11:09;;;;;;;16.52;8.05;;;;;;;;;;5112824;28;20150;-66
2023/05/01 08:13:35;;;;;;;9.57;7.63;;;;;;;;;;5112977;28;20061;-66
2023/05/01 08:16:02;;;;;;;12.05;8.82;;;;;;;;;;5113658;28;20421;-66
2023/05/01 08:18:28;;;;;;;12.68;9.70;;;;;;;;;;5113782;27;20034;-66
2023/05/01 08:20:53;;;;;;;9.93;8.85;;;;;;;;;;5112475;28;20031;-66
2023/05/01 08:23:20;;;;;;;10.00;8.55;;;;;;;;;;5113559;28;20040;-66
2023/05/01 08:25:46;;;;;;;13.48;8.93;;;;;;;;;;5108928;28;20495;-64
2023/05/01 08:28:12;;;;;;;18.83;8.93;;;;;;;;;;5110274;28;20118;-65
2023/05/01 08:30:38;;;;;;;15.85;11.25;;;;;;;;;;5110283;28;20036;-65
2023/05/01 08:33:04;;;;;;;11.68;9.75;;;;;;;;;;5107637;28;20066;-63
2023/05/01 08:35:30;;;;;;;17.88;11.52;;;;;;;;;;5107611;28;20164;-65
2023/05/01 08:37:57;;;;;;;10.20;8.68;;;;;;;;;;5108096;27;20392;-66
2023/05/01 08:40:23;;;;;;;10.48;9.38;;;;;;;;;;5108565;27;20028;-66
2023/05/01 08:42:49;;;;;;;9.98;8.93;;;;;;;;;;5110111;28;20028;-66
2023/05/01 08:45:15;;;;;;;14.82;11.90;;;;;;;;;;5113182;28;20129;-66
2023/05/01 08:47:42;;;;;;;14.32;12.20;;;;;;;;;;5113178;28;20439;-66
2023/05/01 08:50:11;;;;;;;13.23;9.02;;;;;;;;;;5112748;28;20023;-66
2023/05/01 08:52:40;;;;;;;16.52;11.60;;;;;;;;;;5112623;28;20584;-66
2023/05/01 08:55:07;;;;;;;17.10;13.05;;;;;;;;;;5112747;28;20076;-66
2023/05/01 08:57:34;;;;;;;15.95;11.68;;;;;;;;;;5113100;28;20459;-66
2023/05/01 09:00:01;;;;;;;14.90;11.30;;;;;;;;;;5112703;28;20027;-66
2023/05/01 09:02:27;;;;;;;15.20;12.20;;;;;;;;;;5112569;27;20076;-66
2023/05/01 09:04:53;;;;;;;13.43;11.45;;;;;;;;;;5111112;27;20035;-66
2023/05/01 09:07:19;;;;;;;13.48;12.05;;;;;;;;;;5110610;27;20051;-65
2023/05/01 09:09:45;;;;;;;14.23;10.85;;;;;;;;;;5106783;28;20016;-66
2023/05/01 09:12:11;;;;;;;15.25;12.23;;;;;;;;;;5106660;28;20027;-66
2023/05/01 09:14:38;;;;;;;14.55;10.85;;;;;;;;;;5111013;27;20031;-66
2023/05/01 09:17:04;;;;;;;13.75;10.70;;;;;;;;;;5107840;28;20051;-65
2023/05/01 09:19:30;;;;;;;14.70;12.40;;;;;;;;;;5107673;27;20499;-66
2023/05/01 09:21:56;;;;;;;16.33;12.55;;;;;;;;;;5106950;28;20034;-66
2023/05/01 09:24:25;;;;;;;10.07;8.95;;;;;;;;;;5106062;27;20406;-66
2023/05/01 09:26:51;;;;;;;11.40;10.20;;;;;;;;;;5110971;27;20031;-65
2023/05/01 09:29:36;;;;;;;13.73;10.70;;;;;;;;;;5114086;27;20031;-65
2023/05/01 09:32:15;;;;;;;12.75;9.70;;;;;;;;;;5109704;27;20117;-65
2023/05/01 09:34:42;;;;;;;15.27;8.68;;;;;;;;;;5116746;27;20441;-65
2023/05/01 09:37:08;;;;;;;13.35;9.60;;;;;;;;;;5122394;27;20510;-65
2023/05/01 09:39:34;;;;;;;9.40;7.97;;;;;;;;;;5112573;27;20034;-66
2023/05/01 09:42:02;;;;;;;11.57;8.15;;;;;;;;;;5109319;27;20102;-65
2023/05/01 09:44:28;;;;;;;15.23;12.85;;;;;;;;;;5112265;27;20087;-66
2023/05/01 09:46:54;;;;;;;15.60;9.90;;;;;;;;;;5108494;28;20070;-66
2023/05/01 09:49:20;;;;;;;13.68;10.25;;;;;;;;;;5107019;27;20501;-66
2023/05/01 09:51:46;;;;;;;14.02;9.10;;;;;;;;;;5107291;28;20377;-66
2023/05/01 09:54:19;;;;;;;15.07;8.40;;;;;;;;;;5109528;27;20419;-66
2023/05/01 09:56:46;;;;;;;9.77;8.55;;;;;;;;;;5109613;28;20032;-66
2023/05/01 09:59:19;;;;;;;10.10;7.78;;;;;;;;;;5109427;27;20024;-66
2023/05/01 10:01:48;;;;;;;10.88;9.02;;;;;;;;;;5107519;28;20118;-66
2023/05/01 10:04:14;;;;;;;9.38;7.75;;;;;;;;;;5106609;27;20035;-66
2023/05/01 10:06:40;;;;;;;9.43;7.50;;;;;;;;;;5106311;28;20020;-65
2023/05/01 10:09:15;;;;;;;9.68;6.82;;;;;;;;;;5106224;27;20023;-65
2023/05/01 10:11:52;;;;;;;13.48;8.85;;;;;;;;;;5106149;28;20129;-64
2023/05/01 10:14:19;;;;;;;8.00;6.70;;;;;;;;;;5108406;28;20131;-67
2023/05/01 10:16:45;;;;;;;9.00;7.22;;;;;;;;;;5108595;28;20028;-67
2023/05/01 10:19:12;;;;;;;10.45;8.25;;;;;;;;;;5110087;27;20503;-65
2023/05/01 10:21:38;;;;;;;10.98;8.90;;;;;;;;;;5107180;27;20042;-64
2023/05/01 10:24:05;;;;;;;10.45;7.32;;;;;;;;;;5106407;28;20424;-64
2023/05/01 10:26:34;;;;;;;11.90;8.95;;;;;;;;;;5106944;28;20491;-64
2023/05/01 10:29:00;;;;;;;10.18;7.07;;;;;;;;;;5107038;28;20037;-65
2023/05/01 10:31:27;;;;;;;9.88;7.25;;;;;;;;;;5107126;27;20024;-67
2023/05/01 10:33:54;;;;;;;7.43;5.28;;;;;;;;;;5110538;28;20044;-66
2023/05/01 10:36:40;;;;;;;10.05;8.05;;;;;;;;;;5114246;28;20027;-66
2023/05/01 10:39:07;;;;;;;10.00;8.38;;;;;;;;;;5113252;28;20495;-65
2023/05/01 10:42:07;;;;;;;13.38;9.82;;;;;;;;;;5098380;28;20036;-66
2023/05/01 10:44:36;;;;;;;10.35;7.40;;;;;;;;;;5066276;28;20069;-67
2023/05/01 10:47:21;;;;;;;16.83;7.97;;;;;;;;;;5121643;28;20045;-64
2023/05/01 10:50:03;;;;;;;10.00;6.40;;;;;;;;;;5108341;28;20043;-64
2023/05/01 10:52:29;;;;;;;15.15;9.07;;;;;;;;;;5112534;28;20126;-65
2023/05/01 10:55:16;;;;;;;9.70;7.47;;;;;;;;;;5116963;27;20024;-65
2023/05/01 10:57:45;;;;;;;10.35;6.90;;;;;;;;;;5109968;28;20073;-64
2023/05/01 11:00:12;;;;;;;10.95;8.98;;;;;;;;;;5111913;28;20127;-66
2023/05/01 11:02:38;;;;;;;11.90;9.70;;;;;;;;;;5123314;27;20570;-65
2023/05/01 11:05:04;;;;;;;13.85;9.13;;;;;;;;;;5120751;28;20051;-65
2023/05/01 11:07:32;;;;;;;13.93;10.10;;;;;;;;;;5110862;27;20099;-66
2023/05/01 11:09:59;;;;;;;15.18;9.70;;;;;;;;;;5121835;28;20080;-66
2023/05/01 11:12:43;;;;;;;22.27;9.70;;;;;;;;;;5114123;28;20020;-65
2023/05/01 11:15:09;;;;;;;13.52;8.85;;;;;;;;;;5121116;28;20061;-66
2023/05/01 11:17:41;;;;;;;16.90;9.63;;;;;;;;;;5110350;28;20052;-65
2023/05/01 11:20:07;;;;;;;13.98;10.75;;;;;;;;;;5126978;27;20046;-65
2023/05/01 11:22:34;;;;;;;13.75;6.85;;;;;;;;;;5114937;28;20019;-66
2023/05/01 11:25:03;;;;;;;11.60;7.25;;;;;;;;;;5121440;27;20395;-65
2023/05/01 11:27:30;;;;;;;12.63;9.55;;;;;;;;;;5114771;28;20569;-66
2023/05/01 11:29:57;;;;;;;10.05;6.68;;;;;;;;;;5114924;28;20486;-65
2023/05/01 11:32:26;;;;;;;20.25;7.72;;;;;;;;;;5126710;27;20073;-65
2023/05/01 11:34:52;;;;;;;10.77;7.63;;;;;;;;;;5123661;27;20024;-66
2023/05/01 11:37:18;;;;;;;10.27;7.40;;;;;;;;;;5120639;28;20379;-66
2023/05/01 11:39:48;;;;;;;11.15;6.93;;;;;;;;;;5115189;28;20095;-65
2023/05/01 11:42:14;;;;;;;14.50;8.23;;;;;;;;;;5123318;28;20372;-66
2023/05/01 11:44:40;;;;;;;18.73;7.88;;;;;;;;;;5128097;27;20071;-65
2023/05/01 11:47:07;;;;;;;12.30;7.22;;;;;;;;;;5114313;27;20444;-65
2023/05/01 11:49:34;;;;;;;16.58;7.55;;;;;;;;;;5126984;27;20023;-65
2023/05/01 11:52:00;;;;;;;14.93;7.75;;;;;;;;;;5117773;27;20519;-66
2023/05/01 11:54:26;;;;;;;11.70;7.85;;;;;;;;;;5130850;27;20027;-65
2023/05/01 11:56:59;;;;;;;13.68;8.10;;;;;;;;;;5120648;27;20395;-66
2023/05/01 11:59:26;;;;;;;12.32;7.72;;;;;;;;;;5122002;27;20034;-65
2023/05/01 12:01:52;;;;;;;16.75;8.80;;;;;;;;;;5114814;27;20053;-65
2023/05/01 12:04:26;;;;;;;17.30;10.20;;;;;;;;;;5118914;27;20578;-66
2023/05/01 12:06:52;;;;;;;11.13;8.20;;;;;;;;;;5120432;27;20034;-66
2023/05/01 12:09:19;;;;;;;14.23;9.20;;;;;;;;;;5122198;27;20564;-65
2023/05/01 12:11:49;;;;;;;11.70;8.32;;;;;;;;;;5124013;27;20024;-66
2023/05/01 12:14:16;;;;;;;14.75;8.30;;;;;;;;;;5125741;27;20015;-65
2023/05/01 12:16:42;;;;;;;16.20;8.57;;;;;;;;;;5124847;27;20417;-65
2023/05/01 12:19:10;;;;;;;12.77;8.02;;;;;;;;;;5120464;27;20031;-66
2023/05/01 12:21:37;;;;;;;11.88;7.50;;;;;;;;;;5121082;27;20035;-66
2023/05/01 12:24:10;;;;;;;17.38;8.68;;;;;;;;;;5122879;27;20050;-66
2023/05/01 12:26:36;;;;;;;11.48;8.15;;;;;;;;;;5119816;27;20569;-66
2023/05/01 12:29:06;;;;;;;15.70;9.30;;;;;;;;;;5124129;27;20072;-66
2023/05/01 12:31:32;;;;;;;9.75;6.60;;;;;;;;;;5114784;27;20098;-66
2023/05/01 12:34:02;;;;;;;11.18;6.72;;;;;;;;;;5114332;28;20046;-65
2023/05/01 12:36:30;;;;;;;11.32;6.95;;;;;;;;;;5113644;27;20019;-66
2023/05/01 12:39:01;;;;;;;7.72;5.80;;;;;;;;;;5125822;27;20526;-66
2023/05/01 12:41:36;;;;;;;13.10;6.10;;;;;;;;;;5118415;27;20298;-66
2023/05/01 12:44:02;;;;;;;8.60;6.20;;;;;;;;;;5129045;27;20091;-66
2023/05/01 12:46:28;;;;;;;16.38;8.15;;;;;;;;;;5100210;27;20060;-63
2023/05/01 12:48:55;;;;;;;10.13;6.78;;;;;;;;;;5126023;27;20023;-66
2023/05/01 12:51:21;;;;;;;11.45;7.00;;;;;;;;;;5114268;27;20024;-63
2023/05/01 12:53:48;;;;;;;9.93;6.72;;;;;;;;;;5127429;27;20047;-62
2023/05/01 12:56:23;;;;;;;10.82;6.97;;;;;;;;;;5112193;27;20019;-62
2023/05/01 12:58:50;;;;;;;11.27;6.88;;;;;;;;;;5111768;27;20487;-63
2023/05/01 13:01:26;;;;;;;10.25;6.60;;;;;;;;;;5121514;27;20026;-63
2023/05/01 13:03:53;;;;;;;14.35;6.30;;;;;;;;;;5117390;27;20031;-65
2023/05/01 13:06:19;;;;;;;14.52;6.40;;;;;;;;;;5120865;27;20035;-62
2023/05/01 13:08:45;;;;;;;9.27;6.70;;;;;;;;;;5117969;27;20058;-62
2023/05/01 13:11:12;;;;;;;10.32;6.95;;;;;;;;;;5121905;27;20019;-64
2023/05/01 13:13:39;;;;;;;10.38;6.32;;;;;;;;;;5113911;27;20546;-63
2023/05/01 13:16:06;;;;;;;11.48;5.57;;;;;;;;;;5128709;27;20510;-63
2023/05/01 13:18:33;;;;;;;11.88;5.70;;;;;;;;;;5116519;27;20115;-62
2023/05/01 13:21:09;;;;;;;8.90;5.82;;;;;;;;;;5113992;27;20027;-63
2023/05/01 13:23:36;;;;;;;11.82;5.93;;;;;;;;;;5110292;28;20023;-62
2023/05/01 13:26:03;;;;;;;11.07;5.60;;;;;;;;;;5112314;28;20027;-62
2023/05/01 13:28:30;;;;;;;11.35;6.20;;;;;;;;;;5112221;28;20023;-62
2023/05/01 13:30:56;;;;;;;11.70;6.50;;;;;;;;;;5110845;28;20077;-62
2023/05/01 13:33:22;;;;;;;8.95;6.10;;;;;;;;;;5112005;28;20032;-63
2023/05/01 13:35:48;;;;;;;8.48;5.50;;;;;;;;;;5112095;28;20028;-63
2023/05/01 13:38:15;;;;;;;8.77;5.35;;;;;;;;;;5111812;28;20031;-65
2023/05/01 13:40:41;;;;;;;10.40;5.28;;;;;;;;;;5112134;28;20031;-62
2023/05/01 13:43:14;;;;;;;9.57;5.10;;;;;;;;;;5111441;28;20103;-66
2023/05/01 13:45:40;;;;;;;8.80;5.22;;;;;;;;;;5113795;27;20383;-61
2023/05/01 13:48:06;;;;;;;11.07;5.38;;;;;;;;;;5109366;28;20039;-63
2023/05/01 13:50:33;;;;;;;10.70;5.82;;;;;;;;;;5113468;27;20080;-64
2023/05/01 13:53:00;;;;;;;11.15;5.82;;;;;;;;;;5113045;27;20096;-62
2023/05/01 13:55:26;;;;;;;8.25;4.90;;;;;;;;;;5127386;27;20016;-62
2023/05/01 13:57:52;;;;;;;7.50;5.18;;;;;;;;;;5112076;27;20491;-62
2023/05/01 14:00:18;;;;;;;10.77;5.63;;;;;;;;;;5123637;27;20399;-61
2023/05/01 14:02:47;;;;;;;12.75;5.22;;;;;;;;;;5115094;27;20038;-62
2023/05/01 14:05:14;;;;;;;12.43;5.97;;;;;;;;;;5127581;27;20059;-61
2023/05/01 14:07:45;;;;;;;9.18;5.88;;;;;;;;;;5117565;27;20019;-61
2023/05/01 14:10:11;;;;;;;12.88;5.90;;;;;;;;;;5119883;27;20481;-62
2023/05/01 14:12:39;;;;;;;6.80;5.95;;;;;;;;;;5126217;27;20063;-62
2023/05/01 14:15:07;;;;;;;9.77;5.80;;;;;;;;;;5113850;27;20035;-65
2023/05/01 14:17:35;;;;;;;7.68;5.00;;;;;;;;;;5125444;27;20020;-64
2023/05/01 14:20:04;;;;;;;11.68;5.30;;;;;;;;;;5120647;27;20505;-61
2023/05/01 14:22:42;;;;;;;11.52;6.22;;;;;;;;;;5117536;27;20028;-62
2023/05/01 14:25:14;;;;;;;19.25;6.10;;;;;;;;;;5127463;27;20023;-66
2023/05/01 14:27:39;;;;;;;8.60;5.63;;;;;;;;;;5111515;27;20028;-64
2023/05/01 14:30:07;;;;;;;9.88;5.60;;;;;;;;;;5109266;27;20467;-66
2023/05/01 14:32:38;;;;;;;12.57;6.05;;;;;;;;;;5110692;27;20035;-66
2023/05/01 14:35:08;;;;;;;9.50;5.25;;;;;;;;;;5110108;28;20053;-63
2023/05/01 14:37:34;;;;;;;7.82;5.63;;;;;;;;;;5116342;28;20022;-62
2023/05/01 14:40:01;;;;;;;9.95;5.70;;;;;;;;;;5121683;28;20016;-61